Aviation Digital Data Service (ADDS)

Output produced by METARs form (1217 UTC 22 March 2019)
found at http://www.aviationweather.gov/metar/data/
 
Forecast for: ZUUU (CHENGDU , CN)
Text: TAF ZUUU 220801Z 2212/2312 02003MPS 5000 BR SCT040 TX15/2307Z TN08/2223Z
Forecast period: 1200 UTC 22 March 2019 to 1200 UTC 23 March 2019
Forecast type: FROM: standard forecast or significant change
Winds: from the NNE (20 degrees) at 7 MPH (6 knots; 3.1 m/s)
Visibility: 3 miles (5 km)
Ceiling: at least 12,000 feet AGL
Clouds: scattered clouds at 4000 feet AGL
Weather: BR  (mist)
Text: TEMPO 2214/2218 -RA
Forecast period: 1400 to 1800 UTC 22 March 2019
Forecast type: TEMPORARY: The following changes expected for less than half the time period
Visibility: missing
Ceiling: unknown
Clouds: missing
Weather: -RA  (light rain)